Time;durP1;ratioP1;P1;durP2;ratioP2;P2;SDS_P1;SDS_P2;PMS_P1;PMS_P2;Temp;Humidity;BMP_temperature;BMP_pressure;BME280_temperature;BME280_humidity;BME280_pressure;Samples;Min_cycle;Max_cycle;Signal;HPM_P1;HPM_P2
2022/06/20 00:00:50;;;;;;;8.80;5.30;;;24.50;98.80;;;;;;5077050;28;20212;-59
2022/06/20 00:03:23;;;;;;;11.30;5.78;;;24.50;99.90;;;;;;5075263;28;20216;-59
2022/06/20 00:05:50;;;;;;;10.40;5.60;;;24.40;99.90;;;;;;5075439;28;20216;-59
2022/06/20 00:08:17;;;;;;;14.02;5.82;;;24.40;99.90;;;;;;5075028;28;20230;-58
2022/06/20 00:10:46;;;;;;;9.07;5.32;;;24.40;99.90;;;;;;5074976;28;20219;-58
2022/06/20 00:13:19;;;;;;;8.90;5.82;;;24.40;99.90;;;;;;5074822;28;20605;-59
2022/06/20 00:15:48;;;;;;;12.48;5.53;;;24.30;99.90;;;;;;5075163;28;20209;-59
2022/06/20 00:18:15;;;;;;;11.75;5.65;;;24.40;99.90;;;;;;5074955;28;20209;-60
2022/06/20 00:20:42;;;;;;;8.60;5.85;;;24.30;99.90;;;;;;5074722;28;20232;-59
2022/06/20 00:23:09;;;;;;;10.77;6.18;;;24.40;99.90;;;;;;5074487;28;20224;-59
2022/06/20 00:25:36;;;;;;;13.13;6.88;;;24.40;99.90;;;;;;5075048;28;20213;-59
2022/06/20 00:28:04;;;;;;;11.63;6.35;;;24.30;99.90;;;;;;5074989;28;20201;-59
2022/06/20 00:30:31;;;;;;;12.13;6.30;;;24.30;99.90;;;;;;5074847;28;20205;-59
2022/06/20 00:32:59;;;;;;;12.18;5.72;;;24.20;99.90;;;;;;5074450;28;20298;-59
2022/06/20 00:35:25;;;;;;;11.38;6.20;;;24.10;99.90;;;;;;5074643;28;20217;-59
2022/06/20 00:37:56;;;;;;;10.90;6.20;;;24.00;99.90;;;;;;5074912;28;20216;-59
2022/06/20 00:40:28;;;;;;;13.57;6.53;;;24.00;99.90;;;;;;5074581;28;20225;-59
2022/06/20 00:42:55;;;;;;;12.13;6.03;;;23.90;99.90;;;;;;5074656;28;20229;-59
2022/06/20 00:45:24;;;;;;;12.88;5.97;;;23.80;99.90;;;;;;5074584;28;20215;-59
2022/06/20 00:47:53;;;;;;;8.07;6.15;;;23.70;99.90;;;;;;5074968;28;20209;-59
2022/06/20 00:50:25;;;;;;;12.57;6.13;;;23.70;99.90;;;;;;5074239;28;20222;-60
2022/06/20 00:52:58;;;;;;;13.18;6.53;;;23.60;99.90;;;;;;5074413;28;20727;-59
2022/06/20 00:55:29;;;;;;;10.57;6.43;;;23.50;99.90;;;;;;5074793;28;20215;-59
2022/06/20 00:58:02;;;;;;;10.38;6.78;;;23.40;99.90;;;;;;5074635;28;20238;-59
2022/06/20 01:00:32;;;;;;;12.65;6.82;;;23.20;99.90;;;;;;5074498;28;20696;-59
2022/06/20 01:03:04;;;;;;;12.43;6.40;;;23.00;99.90;;;;;;5074284;28;20228;-59
2022/06/20 01:05:39;;;;;;;10.10;6.70;;;23.00;99.90;;;;;;5074364;28;20228;-58
2022/06/20 01:08:09;;;;;;;18.10;6.50;;;23.00;99.90;;;;;;5074454;28;20211;-59
2022/06/20 01:10:45;;;;;;;8.63;6.25;;;23.10;99.90;;;;;;5074255;28;20205;-59
2022/06/20 01:13:16;;;;;;;13.85;6.53;;;23.10;99.90;;;;;;5073837;28;20212;-59
2022/06/20 01:15:45;;;;;;;11.93;7.03;;;23.20;99.90;;;;;;5074270;28;20233;-59
2022/06/20 01:18:16;;;;;;;12.27;6.18;;;23.20;99.90;;;;;;5077198;28;20205;-59
2022/06/20 01:20:47;;;;;;;10.95;6.25;;;23.20;99.90;;;;;;5079044;28;20258;-59
2022/06/20 01:23:27;;;;;;;8.63;6.30;;;23.40;99.90;;;;;;5078658;28;20667;-60
2022/06/20 01:26:21;;;;;;;13.10;6.72;;;23.40;99.90;;;;;;5078799;28;20208;-59
2022/06/20 01:28:54;;;;;;;15.73;7.05;;;23.50;99.90;;;;;;5078236;28;20221;-59
2022/06/20 01:31:23;;;;;;;16.17;7.65;;;23.60;99.90;;;;;;5074125;28;20228;-59
2022/06/20 01:33:50;;;;;;;15.63;6.70;;;23.70;99.90;;;;;;5073404;28;20208;-59
2022/06/20 01:39:03;;;;;;;13.93;6.80;;;23.40;99.90;;;;;;5073453;28;20247;-59
2022/06/20 01:44:18;;;;;;;11.48;6.88;;;23.00;99.90;;;;;;5073621;28;20204;-58
2022/06/20 01:46:45;;;;;;;15.95;7.03;;;23.00;99.90;;;;;;5073068;28;20292;-58
2022/06/20 01:49:15;;;;;;;16.85;7.15;;;23.00;99.90;;;;;;5073237;28;20201;-58
2022/06/20 01:51:47;;;;;;;16.55;7.75;;;23.10;99.90;;;;;;5076842;28;20315;-58
2022/06/20 01:54:17;;;;;;;17.95;7.40;;;23.00;99.90;;;;;;5073785;28;20209;-58
2022/06/20 01:56:45;;;;;;;12.68;8.23;;;23.00;99.90;;;;;;5075386;28;20212;-58
2022/06/20 01:59:17;;;;;;;13.65;7.22;;;23.10;99.90;;;;;;5077572;28;20215;-59
2022/06/20 02:01:45;;;;;;;14.93;8.02;;;23.10;99.90;;;;;;5072245;28;20602;-58
2022/06/20 02:04:15;;;;;;;15.45;8.25;;;23.00;99.90;;;;;;5072713;28;20228;-59
2022/06/20 02:06:42;;;;;;;12.80;8.05;;;23.10;99.90;;;;;;5073117;28;20205;-59
2022/06/20 02:09:10;;;;;;;10.93;8.20;;;23.10;99.90;;;;;;5072741;28;20641;-59
2022/06/20 02:11:40;;;;;;;18.50;8.02;;;23.10;99.90;;;;;;5072412;28;20323;-59
2022/06/20 02:14:11;;;;;;;12.55;8.63;;;23.00;99.90;;;;;;5072644;28;20590;-59
2022/06/20 02:16:41;;;;;;;12.38;8.48;;;22.90;99.90;;;;;;5072874;28;20213;-59
2022/06/20 02:19:15;;;;;;;17.13;8.60;;;22.80;99.90;;;;;;5072721;28;20230;-58
2022/06/20 02:21:45;;;;;;;16.80;8.00;;;22.80;99.90;;;;;;5072690;28;20232;-59
2022/06/20 02:24:15;;;;;;;13.50;7.07;;;22.70;99.90;;;;;;5074614;28;20193;-59
2022/06/20 02:26:44;;;;;;;13.60;7.60;;;22.60;99.90;;;;;;5073181;28;20208;-59
2022/06/20 02:29:21;;;;;;;13.38;8.23;;;22.40;99.90;;;;;;5072433;28;20215;-59
2022/06/20 02:31:49;;;;;;;15.55;7.65;;;22.30;99.90;;;;;;5072348;28;20260;-58
2022/06/20 02:34:17;;;;;;;14.52;8.00;;;22.30;99.90;;;;;;5072332;28;20216;-59
2022/06/20 02:36:44;;;;;;;18.70;7.63;;;22.30;99.90;;;;;;5072462;28;20292;-59
2022/06/20 02:39:12;;;;;;;14.80;8.15;;;22.20;99.90;;;;;;5072273;28;20255;-59
2022/06/20 02:41:41;;;;;;;15.40;7.93;;;22.30;99.90;;;;;;5072190;28;20680;-58
2022/06/20 02:44:11;;;;;;;15.50;7.75;;;22.20;99.90;;;;;;5072095;28;20208;-59
2022/06/20 02:46:39;;;;;;;15.85;8.23;;;22.30;99.90;;;;;;5072400;28;20209;-59
2022/06/20 02:49:09;;;;;;;14.25;8.52;;;22.40;99.90;;;;;;5072044;28;20676;-59
2022/06/20 02:51:41;;;;;;;19.35;10.35;;;22.50;99.90;;;;;;5072006;28;20795;-59
2022/06/20 02:54:11;;;;;;;16.10;9.65;;;22.60;99.90;;;;;;5072037;28;20597;-59
2022/06/20 02:56:41;;;;;;;14.52;8.10;;;22.70;99.90;;;;;;5072140;28;20223;-59
2022/06/20 02:59:19;;;;;;;17.88;8.18;;;22.80;99.90;;;;;;5072200;28;20236;-59
2022/06/20 03:01:52;;;;;;;9.80;7.30;;;22.90;99.90;;;;;;5071947;28;20720;-59
2022/06/20 03:04:20;;;;;;;13.07;7.40;;;23.00;99.90;;;;;;5072319;28;20216;-58
2022/06/20 03:06:51;;;;;;;16.63;8.77;;;23.10;99.90;;;;;;5071973;28;20664;-59
2022/06/20 03:09:24;;;;;;;22.75;9.43;;;23.10;99.90;;;;;;5072115;28;20201;-59
2022/06/20 03:11:51;;;;;;;20.80;8.30;;;23.00;99.90;;;;;;5073059;28;20236;-59
2022/06/20 03:14:19;;;;;;;20.88;8.13;;;22.90;99.90;;;;;;5076092;28;20209;-59
2022/06/20 03:16:46;;;;;;;22.63;8.63;;;22.70;99.90;;;;;;5076469;28;20212;-58
2022/06/20 03:19:22;;;;;;;16.60;8.18;;;22.60;99.90;;;;;;5076223;28;20200;-58
2022/06/20 03:21:53;;;;;;;22.65;8.68;;;22.50;99.90;;;;;;5076805;28;20638;-58
2022/06/20 03:24:22;;;;;;;18.60;9.15;;;22.70;99.90;;;;;;5076975;28;20204;-58
2022/06/20 03:26:50;;;;;;;18.15;8.35;;;22.70;99.90;;;;;;5079013;28;20197;-58
2022/06/20 03:29:20;;;;;;;15.82;8.50;;;22.80;99.90;;;;;;5077510;28;20204;-59
2022/06/20 03:31:47;;;;;;;15.75;6.88;;;22.90;99.90;;;;;;5076902;28;20221;-59
2022/06/20 03:34:14;;;;;;;15.55;7.38;;;23.00;99.90;;;;;;5078654;28;20201;-58
2022/06/20 03:36:42;;;;;;;15.27;6.75;;;23.10;99.90;;;;;;5078278;28;20205;-59
2022/06/20 03:39:10;;;;;;;18.38;7.00;;;23.20;99.90;;;;;;5076551;28;20208;-59
2022/06/20 03:41:37;;;;;;;13.07;6.75;;;23.40;99.90;;;;;;5075950;28;20229;-59
2022/06/20 03:44:08;;;;;;;14.63;6.65;;;23.40;99.90;;;;;;5076032;28;20241;-60
2022/06/20 03:46:44;;;;;;;19.90;8.93;;;23.40;99.90;;;;;;5077653;28;20213;-58
2022/06/20 03:49:17;;;;;;;15.75;7.65;;;23.40;99.90;;;;;;5077467;28;20212;-58
2022/06/20 03:51:46;;;;;;;11.70;6.88;;;23.50;99.90;;;;;;5078723;28;20224;-58
2022/06/20 03:54:19;;;;;;;16.63;7.28;;;23.50;99.90;;;;;;5077774;28;20201;-58
2022/06/20 03:56:53;;;;;;;18.25;8.27;;;23.30;99.90;;;;;;5077980;28;20205;-58
2022/06/20 03:59:24;;;;;;;16.27;8.30;;;23.00;99.90;;;;;;5077489;28;20854;-60
2022/06/20 04:01:58;;;;;;;17.55;8.90;;;22.90;99.90;;;;;;5077432;28;20236;-58
2022/06/20 04:04:29;;;;;;;14.68;8.52;;;23.00;99.90;;;;;;5077428;28;20227;-59
2022/06/20 04:07:00;;;;;;;16.92;8.75;;;23.00;99.90;;;;;;5076763;28;20296;-59
2022/06/20 04:12:25;;;;;;;12.90;9.10;;;23.10;99.90;;;;;;5075702;28;20259;-60
2022/06/20 04:14:56;;;;;;;21.17;10.20;;;23.00;99.90;;;;;;5077479;28;20216;-60
2022/06/20 04:20:22;;;;;;;14.98;10.30;;;23.00;99.90;;;;;;5075005;28;20267;-60
2022/06/20 04:22:53;;;;;;;15.52;9.55;;;23.10;99.90;;;;;;5074299;28;20281;-59
2022/06/20 04:25:29;;;;;;;13.52;9.85;;;23.10;99.90;;;;;;5074361;28;20688;-60
2022/06/20 04:28:02;;;;;;;17.17;11.13;;;23.20;99.90;;;;;;5074429;28;20246;-60
2022/06/20 04:30:34;;;;;;;24.73;8.63;;;23.20;99.90;;;;;;5075289;28;20560;-58
2022/06/20 04:33:04;;;;;;;21.15;9.27;;;23.10;99.90;;;;;;5074555;28;20232;-58
2022/06/20 04:35:36;;;;;;;14.13;8.68;;;23.10;99.90;;;;;;5074720;28;20220;-59
2022/06/20 04:38:07;;;;;;;19.23;8.70;;;23.10;99.90;;;;;;5075000;28;20232;-59
2022/06/20 04:40:39;;;;;;;15.18;8.23;;;23.00;99.90;;;;;;5074754;28;20221;-59
2022/06/20 04:43:14;;;;;;;15.90;9.45;;;23.10;99.90;;;;;;5074106;28;20260;-59
2022/06/20 04:45:46;;;;;;;16.63;8.80;;;23.10;99.90;;;;;;5074282;28;20390;-59
2022/06/20 04:48:15;;;;;;;13.57;8.57;;;23.10;99.90;;;;;;5074710;28;20212;-59
2022/06/20 04:50:45;;;;;;;15.40;8.85;;;23.10;99.90;;;;;;5074610;28;20201;-59
2022/06/20 04:53:15;;;;;;;13.27;8.40;;;23.10;99.90;;;;;;5074350;28;20204;-60
2022/06/20 04:55:46;;;;;;;20.42;8.20;;;23.10;99.90;;;;;;5073877;28;20680;-59
2022/06/20 04:58:18;;;;;;;17.45;7.43;;;23.10;99.90;;;;;;5074229;28;20211;-59
2022/06/20 05:00:49;;;;;;;13.95;7.80;;;23.10;99.90;;;;;;5075312;28;20224;-59
2022/06/20 05:03:20;;;;;;;15.98;7.85;;;23.10;99.90;;;;;;5074608;28;20216;-59
2022/06/20 05:05:50;;;;;;;18.48;8.18;;;23.10;99.90;;;;;;5075991;28;20209;-60
2022/06/20 05:08:24;;;;;;;17.77;8.25;;;23.00;99.90;;;;;;5077037;28;20219;-58
2022/06/20 05:10:57;;;;;;;16.10;9.10;;;23.00;99.90;;;;;;5075309;28;20778;-60
2022/06/20 05:13:30;;;;;;;16.33;8.82;;;22.90;99.90;;;;;;5074526;28;20215;-59
2022/06/20 05:15:58;;;;;;;14.75;8.90;;;23.00;99.90;;;;;;5075798;28;20223;-59
2022/06/20 05:18:30;;;;;;;14.60;8.38;;;23.00;99.90;;;;;;5073748;28;20235;-60
2022/06/20 05:21:01;;;;;;;16.55;8.05;;;23.10;99.90;;;;;;5073821;28;20252;-60
2022/06/20 05:23:34;;;;;;;19.05;8.02;;;23.10;99.90;;;;;;5073746;28;20189;-59
2022/06/20 05:26:05;;;;;;;15.18;8.05;;;23.10;99.90;;;;;;5074893;28;20220;-60
2022/06/20 05:28:33;;;;;;;17.02;8.45;;;23.20;99.90;;;;;;5075811;28;20683;-58
2022/06/20 05:31:00;;;;;;;14.43;7.28;;;23.40;99.90;;;;;;5074832;28;20233;-59
2022/06/20 05:33:33;;;;;;;13.93;7.28;;;23.50;99.90;;;;;;5073487;28;20565;-59
2022/06/20 05:36:05;;;;;;;17.88;7.50;;;23.60;99.90;;;;;;5072806;28;20303;-59
2022/06/20 05:38:37;;;;;;;17.58;7.47;;;23.60;99.90;;;;;;5074122;28;20213;-61
2022/06/20 05:41:07;;;;;;;12.50;7.10;;;23.70;99.90;;;;;;5073753;28;20217;-60
2022/06/20 05:43:36;;;;;;;16.55;6.82;;;23.70;99.90;;;;;;5073386;28;20249;-59
2022/06/20 05:46:06;;;;;;;11.60;6.82;;;23.60;99.90;;;;;;5073429;28;20256;-59
2022/06/20 05:48:36;;;;;;;12.80;6.57;;;23.80;99.90;;;;;;5073785;28;20212;-59
2022/06/20 05:51:05;;;;;;;14.85;6.93;;;24.00;99.90;;;;;;5073755;28;20204;-59
2022/06/20 05:53:35;;;;;;;11.93;6.82;;;24.20;99.90;;;;;;5075097;28;20205;-58
2022/06/20 05:56:14;;;;;;;9.30;6.40;;;24.10;99.90;;;;;;5075913;28;20209;-59
2022/06/20 05:58:44;;;;;;;12.65;6.35;;;24.10;99.90;;;;;;5074375;28;20196;-58
2022/06/20 06:01:16;;;;;;;14.07;7.00;;;24.00;99.90;;;;;;5073867;28;20256;-59
2022/06/20 06:03:48;;;;;;;13.05;7.50;;;23.90;99.90;;;;;;5074894;28;20201;-59
2022/06/20 06:06:22;;;;;;;23.17;15.13;;;23.80;99.90;;;;;;5074229;28;20205;-59
2022/06/20 06:08:55;;;;;;;13.50;7.68;;;23.80;99.90;;;;;;5075000;28;20255;-61
2022/06/20 06:11:27;;;;;;;14.38;6.80;;;23.70;99.90;;;;;;5074725;28;20233;-60
2022/06/20 06:14:03;;;;;;;15.63;6.82;;;23.80;99.90;;;;;;5074445;28;20209;-59
2022/06/20 06:16:49;;;;;;;13.13;6.88;;;23.90;99.90;;;;;;5073773;28;20557;-59
2022/06/20 06:19:24;;;;;;;12.43;7.00;;;24.10;99.90;;;;;;5073061;28;20699;-59
2022/06/20 06:21:53;;;;;;;11.60;7.18;;;24.20;99.90;;;;;;5072777;28;20232;-59
2022/06/20 06:24:24;;;;;;;15.70;7.20;;;24.20;99.90;;;;;;5072521;28;20672;-59
2022/06/20 06:26:56;;;;;;;12.60;6.35;;;24.20;99.90;;;;;;5073109;28;20208;-60
2022/06/20 06:29:26;;;;;;;13.48;6.53;;;24.30;99.90;;;;;;5073518;28;20201;-60
2022/06/20 06:31:57;;;;;;;16.08;7.43;;;24.40;99.90;;;;;;5073429;28;20223;-60
2022/06/20 06:34:33;;;;;;;12.02;6.05;;;24.50;99.90;;;;;;5073348;28;20692;-59
2022/06/20 06:37:04;;;;;;;12.48;6.43;;;24.50;99.90;;;;;;5075244;28;20201;-58
2022/06/20 06:39:37;;;;;;;15.38;7.20;;;24.60;99.90;;;;;;5073814;28;20259;-60
2022/06/20 06:42:11;;;;;;;14.40;6.70;;;24.70;99.90;;;;;;5073567;28;20235;-59
2022/06/20 06:44:43;;;;;;;15.60;6.65;;;24.70;99.90;;;;;;5074075;28;20308;-59
2022/06/20 06:47:18;;;;;;;14.20;6.40;;;24.70;99.90;;;;;;5072727;28;20201;-60
2022/06/20 06:49:48;;;;;;;8.98;5.82;;;24.60;99.90;;;;;;5073270;28;20204;-59
2022/06/20 06:52:21;;;;;;;9.82;5.60;;;25.30;99.90;;;;;;5072871;28;20232;-61
2022/06/20 06:54:55;;;;;;;13.20;7.47;;;26.90;99.90;;;;;;5073292;28;20212;-60
2022/06/20 06:57:28;;;;;;;11.65;5.45;;;27.90;99.90;;;;;;5073650;28;20208;-60
2022/06/20 07:00:18;;;;;;;17.80;5.65;;;29.00;99.90;;;;;;5073258;28;20213;-60
2022/06/20 07:02:51;;;;;;;12.52;5.13;;;29.90;99.90;;;;;;5072923;28;20240;-60
2022/06/20 07:05:23;;;;;;;15.55;5.60;;;30.80;99.90;;;;;;5072703;28;20668;-60
2022/06/20 07:07:53;;;;;;;9.18;4.55;;;31.10;99.90;;;;;;5073147;28;20211;-61
2022/06/20 07:10:24;;;;;;;10.60;4.93;;;31.00;99.90;;;;;;5072795;28;20200;-61
2022/06/20 07:12:55;;;;;;;11.50;5.07;;;31.00;99.90;;;;;;5072196;28;20717;-60
2022/06/20 07:15:24;;;;;;;11.45;4.95;;;30.80;99.90;;;;;;5072289;28;20263;-60
2022/06/20 07:17:55;;;;;;;12.07;4.63;;;30.90;99.90;;;;;;5072222;28;20211;-59
2022/06/20 07:20:25;;;;;;;8.50;4.55;;;31.60;99.90;;;;;;5072434;28;20688;-60
2022/06/20 07:22:52;;;;;;;10.38;4.65;;;32.90;98.40;;;;;;5072294;28;20236;-59
2022/06/20 07:25:23;;;;;;;9.93;4.45;;;34.50;94.10;;;;;;5073027;28;20213;-64
2022/06/20 07:27:56;;;;;;;18.27;8.95;;;36.10;86.70;;;;;;5074246;28;20236;-65
2022/06/20 07:30:27;;;;;;;11.15;4.47;;;37.50;79.40;;;;;;5074562;28;20212;-65
2022/06/20 07:32:59;;;;;;;7.32;3.80;;;39.10;71.10;;;;;;5074423;28;20220;-65
2022/06/20 07:35:30;;;;;;;8.43;3.80;;;40.50;65.00;;;;;;5075980;28;20231;-65
2022/06/20 07:38:02;;;;;;;8.48;3.78;;;41.70;60.20;;;;;;5076047;28;20205;-65
2022/06/20 07:40:34;;;;;;;9.77;4.13;;;42.50;56.20;;;;;;5075186;28;20672;-65
2022/06/20 07:43:07;;;;;;;9.70;3.53;;;43.00;54.00;;;;;;5073385;28;20239;-66
2022/06/20 07:45:40;;;;;;;11.48;3.88;;;43.50;53.20;;;;;;5074095;28;20215;-65
2022/06/20 07:48:11;;;;;;;9.05;4.00;;;44.20;51.10;;;;;;5074085;28;20200;-65
2022/06/20 07:50:44;;;;;;;9.88;3.75;;;44.10;51.10;;;;;;5074822;28;20212;-65
2022/06/20 07:53:16;;;;;;;9.90;3.72;;;42.30;52.40;;;;;;5075135;28;20258;-65
2022/06/20 07:55:47;;;;;;;10.02;3.92;;;41.80;51.90;;;;;;5076155;28;20205;-66
2022/06/20 07:58:25;;;;;;;9.38;3.83;;;41.70;53.00;;;;;;5075863;28;20205;-65
2022/06/20 08:00:53;;;;;;;14.40;4.00;;;42.50;52.10;;;;;;5078404;28;20581;-66
2022/06/20 08:03:25;;;;;;;8.45;3.90;;;43.40;50.40;;;;;;5079231;28;20711;-65
2022/06/20 08:05:57;;;;;;;11.82;4.15;;;44.20;48.70;;;;;;5078131;28;20694;-66
2022/06/20 08:08:28;;;;;;;10.60;4.20;;;44.90;47.30;;;;;;5078717;28;20216;-65
2022/06/20 08:11:00;;;;;;;8.15;3.78;;;45.10;46.90;;;;;;5078124;28;20208;-66
2022/06/20 08:13:36;;;;;;;7.85;3.70;;;45.30;46.40;;;;;;5076922;28;20232;-66
2022/06/20 08:16:08;;;;;;;11.57;4.03;;;45.30;45.30;;;;;;5076919;28;20287;-66
2022/06/20 08:18:36;;;;;;;13.80;4.25;;;45.30;45.50;;;;;;5077864;28;20200;-66
2022/06/20 08:21:10;;;;;;;11.40;3.78;;;45.00;45.90;;;;;;5076735;28;20205;-66
2022/06/20 08:23:43;;;;;;;8.35;3.70;;;44.60;45.20;;;;;;5076213;28;20238;-69
2022/06/20 08:26:14;;;;;;;12.82;3.70;;;42.80;48.30;;;;;;5078104;28;20239;-66
2022/06/20 08:28:49;;;;;;;8.95;3.88;;;42.20;49.10;;;;;;5078162;28;20209;-65
2022/06/20 08:31:21;;;;;;;10.88;3.67;;;41.60;49.20;;;;;;5075540;28;21036;-62
2022/06/20 08:33:54;;;;;;;8.52;3.92;;;41.90;47.80;;;;;;5074758;28;20218;-64
2022/06/20 08:36:23;;;;;;;10.40;3.53;;;41.90;48.50;;;;;;5076552;28;20580;-62
2022/06/20 08:38:59;;;;;;;6.97;3.40;;;41.80;46.60;;;;;;5076459;28;20680;-61
2022/06/20 08:42:08;;;;;;;8.40;3.50;;;42.00;47.10;;;;;;5075134;28;20227;-61
2022/06/20 08:45:01;;;;;;;9.57;3.35;;;42.20;46.90;;;;;;5075485;28;20208;-62
2022/06/20 08:47:56;;;;;;;7.18;3.25;;;42.60;47.10;;;;;;5075441;28;20249;-62
2022/06/20 08:51:07;;;;;;;9.45;3.70;;;42.70;46.30;;;;;;5075157;28;20208;-63
2022/06/20 08:54:07;;;;;;;14.57;4.20;;;42.50;47.10;;;;;;5075355;28;20212;-62
2022/06/20 08:56:42;;;;;;;11.18;4.00;;;41.50;47.20;;;;;;5075530;28;20201;-61
2022/06/20 08:59:22;;;;;;;9.68;3.85;;;40.30;50.00;;;;;;5073552;28;20199;-59
2022/06/20 09:01:58;;;;;;;7.95;4.25;;;39.20;52.00;;;;;;5073091;28;20260;-59
2022/06/20 09:04:52;;;;;;;10.27;4.30;;;37.80;53.50;;;;;;5073629;28;20215;-59
2022/06/20 09:07:44;;;;;;;10.48;4.10;;;36.40;55.30;;;;;;5063177;28;20312;-61
2022/06/20 09:10:41;;;;;;;9.57;4.40;;;35.40;57.40;;;;;;5072364;28;20209;-59
2022/06/20 09:13:29;;;;;;;10.02;4.55;;;34.30;59.20;;;;;;5072779;28;20240;-60
2022/06/20 09:16:06;;;;;;;10.85;4.30;;;33.60;60.80;;;;;;5072840;28;20584;-59
2022/06/20 09:18:48;;;;;;;9.95;4.07;;;32.90;63.40;;;;;;5072908;28;20205;-60
2022/06/20 09:21:25;;;;;;;10.20;4.10;;;32.60;65.20;;;;;;5072856;28;20232;-60
2022/06/20 09:24:14;;;;;;;10.63;4.63;;;32.40;65.50;;;;;;5072724;28;20196;-60
2022/06/20 09:26:48;;;;;;;10.35;4.07;;;32.10;66.10;;;;;;5072896;28;20224;-60
2022/06/20 09:29:43;;;;;;;12.57;4.45;;;31.90;66.90;;;;;;5072643;28;20304;-61
2022/06/20 09:32:51;;;;;;;9.48;4.10;;;31.80;67.90;;;;;;5072781;28;20216;-60
2022/06/20 09:35:44;;;;;;;12.27;4.35;;;31.70;67.80;;;;;;5038210;28;20220;-60
2022/06/20 09:38:39;;;;;;;7.63;3.97;;;31.70;68.60;;;;;;5073429;28;20208;-59
2022/06/20 09:41:15;;;;;;;9.07;4.45;;;31.80;67.90;;;;;;5073005;28;20212;-61
2022/06/20 09:43:51;;;;;;;12.30;4.15;;;31.80;67.20;;;;;;5072328;28;20228;-59
2022/06/20 09:46:24;;;;;;;10.98;4.40;;;31.80;65.90;;;;;;5072758;28;20662;-59
2022/06/20 09:49:00;;;;;;;14.27;4.50;;;31.70;67.90;;;;;;5072699;28;20204;-58
2022/06/20 09:51:41;;;;;;;12.63;4.00;;;31.70;68.60;;;;;;5073180;28;20229;-59
2022/06/20 09:54:14;;;;;;;9.38;4.45;;;31.70;68.50;;;;;;5072289;28;20204;-61
2022/06/20 09:56:50;;;;;;;9.40;4.40;;;31.50;68.60;;;;;;5072380;28;20213;-60
2022/06/20 09:59:24;;;;;;;13.02;4.18;;;31.20;70.00;;;;;;5072246;28;20209;-61
2022/06/20 10:02:04;;;;;;;11.93;4.07;;;31.00;70.90;;;;;;5071946;28;20229;-61
2022/06/20 10:04:40;;;;;;;11.00;4.10;;;30.80;71.30;;;;;;5072107;28;20651;-60
2022/06/20 10:07:16;;;;;;;10.13;4.10;;;30.60;71.30;;;;;;5072443;28;20193;-61
2022/06/20 10:09:50;;;;;;;9.70;4.28;;;30.60;71.80;;;;;;5071993;28;20223;-60
2022/06/20 10:12:24;;;;;;;8.25;3.88;;;30.60;72.90;;;;;;5071908;28;20225;-61
2022/06/20 10:15:01;;;;;;;11.90;3.95;;;30.80;72.70;;;;;;5071856;28;20215;-60
2022/06/20 10:17:37;;;;;;;14.18;4.80;;;31.10;71.40;;;;;;5072531;28;20562;-61
2022/06/20 10:20:16;;;;;;;10.88;4.30;;;31.20;70.90;;;;;;5072423;28;20208;-61
2022/06/20 10:22:53;;;;;;;13.88;4.25;;;31.20;71.50;;;;;;5072680;28;20225;-64
2022/06/20 10:25:38;;;;;;;14.30;4.60;;;31.20;70.90;;;;;;5074315;28;20205;-63
2022/06/20 10:28:15;;;;;;;11.18;4.15;;;31.10;70.00;;;;;;5075274;28;20205;-64
2022/06/20 10:30:48;;;;;;;7.97;4.22;;;30.90;72.50;;;;;;5074533;28;20580;-63
2022/06/20 10:33:31;;;;;;;13.68;4.60;;;30.80;72.00;;;;;;5073494;28;20232;-63
2022/06/20 10:36:17;;;;;;;10.18;4.20;;;30.70;71.50;;;;;;5072198;28;20205;-63
2022/06/20 10:39:01;;;;;;;8.88;4.38;;;30.40;73.60;;;;;;5074104;28;20270;-63
2022/06/20 10:41:37;;;;;;;13.35;4.50;;;30.60;73.50;;;;;;5073517;28;20236;-61
2022/06/20 10:44:17;;;;;;;11.02;4.13;;;30.60;72.90;;;;;;5073529;28;20696;-62
2022/06/20 10:46:52;;;;;;;12.55;4.78;;;30.70;73.10;;;;;;5073063;28;20219;-63
2022/06/20 10:49:39;;;;;;;8.30;4.15;;;30.90;73.20;;;;;;5073005;28;20209;-63
2022/06/20 10:52:17;;;;;;;9.38;4.13;;;30.60;73.10;;;;;;5073366;28;20707;-63
2022/06/20 10:54:59;;;;;;;16.38;4.13;;;30.30;74.70;;;;;;5072893;28;20209;-58
2022/06/20 10:57:42;;;;;;;10.50;4.18;;;30.10;74.40;;;;;;5072767;28;20780;-58
2022/06/20 11:00:13;;;;;;;10.98;5.38;;;30.00;75.30;;;;;;5073027;28;20291;-57
2022/06/20 11:02:56;;;;;;;11.90;4.30;;;30.30;74.70;;;;;;5072870;28;20239;-60
2022/06/20 11:05:29;;;;;;;11.20;4.43;;;30.60;74.10;;;;;;5073257;28;20201;-58
2022/06/20 11:08:03;;;;;;;11.98;4.13;;;30.90;73.20;;;;;;5073004;28;20262;-59
2022/06/20 11:10:46;;;;;;;8.45;3.97;;;30.90;73.20;;;;;;5072519;28;20652;-58
2022/06/20 11:13:22;;;;;;;16.10;4.30;;;30.70;73.70;;;;;;5072435;28;20255;-59
2022/06/20 11:15:58;;;;;;;9.13;4.35;;;30.30;75.10;;;;;;5072222;28;20205;-59
2022/06/20 11:18:36;;;;;;;8.73;3.88;;;30.00;75.60;;;;;;5072230;28;20677;-59
2022/06/20 11:21:14;;;;;;;12.45;4.28;;;29.80;74.90;;;;;;5072196;28;20208;-59
2022/06/20 11:23:47;;;;;;;10.25;3.83;;;29.60;77.30;;;;;;5071787;28;20217;-59
2022/06/20 11:26:22;;;;;;;7.78;3.70;;;29.90;76.90;;;;;;5072204;28;20227;-59
2022/06/20 11:29:06;;;;;;;9.98;4.43;;;30.30;74.90;;;;;;5072655;28;20227;-59
2022/06/20 11:31:46;;;;;;;9.82;4.07;;;30.50;73.40;;;;;;5072915;28;20233;-59
2022/06/20 11:34:34;;;;;;;10.70;3.35;;;30.80;73.10;;;;;;5075981;28;20197;-59
2022/06/20 11:37:16;;;;;;;7.18;3.70;;;31.30;71.60;;;;;;5076641;28;20220;-59
2022/06/20 11:40:06;;;;;;;8.70;3.50;;;31.50;69.70;;;;;;5076439;28;20208;-62
2022/06/20 11:43:02;;;;;;;7.95;3.28;;;31.40;71.00;;;;;;5075808;28;20228;-59
2022/06/20 11:45:44;;;;;;;9.25;3.65;;;30.90;70.80;;;;;;5076582;28;20683;-60
2022/06/20 11:48:23;;;;;;;10.52;3.58;;;30.50;72.50;;;;;;5076559;28;20610;-60
2022/06/20 11:50:58;;;;;;;9.23;3.42;;;30.10;73.40;;;;;;5076733;28;20258;-61
2022/06/20 11:53:38;;;;;;;8.68;3.58;;;30.00;74.40;;;;;;5076571;28;20283;-60
2022/06/20 11:56:14;;;;;;;9.60;3.47;;;30.00;76.10;;;;;;5077127;28;20215;-60
2022/06/20 11:59:01;;;;;;;5.82;3.58;;;30.50;74.50;;;;;;5076152;28;20702;-60
2022/06/20 12:01:37;;;;;;;10.25;3.47;;;30.30;74.70;;;;;;5075918;28;20231;-61
2022/06/20 12:04:11;;;;;;;8.13;3.08;;;30.30;75.10;;;;;;5075815;28;20700;-61
2022/06/20 12:06:45;;;;;;;6.90;3.00;;;30.30;73.70;;;;;;5075788;28;20304;-60
2022/06/20 12:09:17;;;;;;;5.85;2.90;;;30.40;75.00;;;;;;5076750;28;20673;-61
2022/06/20 12:12:04;;;;;;;8.93;3.38;;;30.30;75.30;;;;;;5075659;28;20232;-60
2022/06/20 12:14:45;;;;;;;9.40;3.63;;;30.20;76.60;;;;;;5075692;28;20205;-61
2022/06/20 12:17:24;;;;;;;10.18;3.83;;;30.30;76.60;;;;;;5075722;28;20201;-61
2022/06/20 12:23:24;;;;;;;11.63;3.50;;;29.50;79.10;;;;;;5075028;28;20306;-61
2022/06/20 12:25:55;;;;;;;12.13;3.47;;;28.90;79.50;;;;;;5075213;28;20209;-60
2022/06/20 12:28:25;;;;;;;8.60;3.90;;;28.70;80.50;;;;;;5075323;28;20253;-59
2022/06/20 12:31:00;;;;;;;10.27;3.65;;;28.20;81.50;;;;;;5076196;28;20237;-60
2022/06/20 12:33:28;;;;;;;12.68;3.78;;;28.00;82.60;;;;;;5075651;28;20208;-61
2022/06/20 12:36:00;;;;;;;17.05;3.92;;;27.90;83.90;;;;;;5075149;28;20641;-61
2022/06/20 12:38:33;;;;;;;13.57;3.95;;;27.90;83.90;;;;;;5075070;28;20220;-60
2022/06/20 12:41:05;;;;;;;11.20;3.25;;;27.90;84.10;;;;;;5074933;28;20211;-61
2022/06/20 12:43:41;;;;;;;8.43;3.08;;;28.10;83.00;;;;;;5074397;28;20241;-60
2022/06/20 12:46:29;;;;;;;9.85;3.35;;;28.00;83.70;;;;;;5073977;28;20215;-62
2022/06/20 12:49:19;;;;;;;7.95;3.47;;;28.00;83.70;;;;;;5074441;28;20223;-60
2022/06/20 12:51:56;;;;;;;8.48;3.70;;;27.90;83.70;;;;;;5074686;28;20225;-61
2022/06/20 12:54:58;;;;;;;9.80;3.15;;;27.90;84.80;;;;;;5074268;28;20205;-59
2022/06/20 12:58:01;;;;;;;8.23;3.40;;;28.00;84.80;;;;;;5074323;28;20216;-60
2022/06/20 13:00:42;;;;;;;10.80;3.50;;;28.10;84.60;;;;;;5074411;28;20212;-60
2022/06/20 13:03:32;;;;;;;12.85;3.40;;;27.90;85.40;;;;;;5074059;28;20244;-61
2022/06/20 13:06:11;;;;;;;12.88;3.60;;;27.90;84.80;;;;;;5073939;28;20691;-60
2022/06/20 13:08:53;;;;;;;9.63;3.45;;;28.10;84.20;;;;;;5074337;28;20229;-60
2022/06/20 13:11:28;;;;;;;12.77;3.92;;;28.20;84.20;;;;;;5074469;28;20244;-61
2022/06/20 13:14:20;;;;;;;8.27;3.28;;;28.10;84.30;;;;;;5073729;28;20239;-60
2022/06/20 13:16:54;;;;;;;11.02;3.42;;;28.20;83.40;;;;;;5074210;28;20205;-60
2022/06/20 13:19:40;;;;;;;8.90;3.10;;;28.20;83.90;;;;;;5073940;28;20583;-60
2022/06/20 13:22:16;;;;;;;6.70;2.88;;;28.50;84.10;;;;;;5073886;28;20233;-60
2022/06/20 13:24:51;;;;;;;8.35;2.97;;;28.50;83.00;;;;;;5073406;28;20232;-61
2022/06/20 13:27:43;;;;;;;6.80;2.72;;;27.90;85.40;;;;;;5073787;28;20299;-60
2022/06/20 13:30:20;;;;;;;5.35;3.00;;;27.70;86.60;;;;;;5068825;28;20209;-62